createdAt,value
2023-03-18T00:02:46.101Z,6.75
2023-03-18T00:08:50.730Z,5.80
2023-03-18T00:14:54.218Z,4.60
2023-03-18T00:21:00.973Z,3.75
2023-03-18T00:27:04.956Z,3.38
2023-03-18T00:33:08.540Z,3.30
2023-03-18T00:39:13.594Z,2.72
2023-03-18T00:45:19.821Z,3.40
2023-03-18T00:51:24.029Z,3.53
2023-03-18T00:57:29.438Z,3.53
2023-03-18T01:03:33.975Z,3.80
2023-03-18T01:09:40.690Z,3.75
2023-03-18T01:15:45.477Z,3.80
2023-03-18T01:21:48.922Z,3.90
2023-03-18T01:27:52.542Z,3.53
2023-03-18T01:33:57.351Z,3.72
2023-03-18T01:40:00.866Z,4.10
2023-03-18T01:46:24.603Z,4.30
2023-03-18T01:52:33.172Z,5.25
2023-03-18T01:58:39.145Z,6.22
2023-03-18T02:04:46.031Z,5.88
2023-03-18T02:10:51.839Z,6.13
2023-03-18T02:16:57.352Z,6.40
2023-03-18T02:23:02.822Z,6.43
2023-03-18T02:29:08.973Z,6.93
2023-03-18T02:35:13.062Z,7.40
2023-03-18T02:41:18.242Z,7.43
2023-03-18T02:47:23.677Z,7.65
2023-03-18T02:53:28.084Z,7.07
2023-03-18T02:59:32.574Z,8.20
2023-03-18T03:05:38.207Z,9.00
2023-03-18T03:11:42.054Z,8.93
2023-03-18T03:17:45.448Z,9.32
2023-03-18T03:23:50.243Z,9.45
2023-03-18T03:29:54.076Z,9.70
2023-03-18T03:35:58.276Z,9.25
2023-03-18T03:42:03.204Z,9.95
2023-03-18T03:48:07.028Z,9.38
2023-03-18T03:54:10.489Z,9.63
2023-03-18T04:00:17.349Z,9.18
2023-03-18T04:06:21.183Z,9.02
2023-03-18T04:12:24.833Z,8.85
2023-03-18T04:18:31.101Z,8.98
2023-03-18T04:24:35.436Z,8.73
2023-03-18T04:30:38.875Z,8.48
2023-03-18T04:36:43.682Z,7.55
2023-03-18T04:42:47.940Z,7.55
2023-03-18T04:48:51.888Z,7.50
2023-03-18T04:54:56.830Z,6.97
2023-03-18T05:01:00.657Z,7.43
2023-03-18T05:07:04.394Z,7.60
2023-03-18T05:13:09.442Z,7.45
2023-03-18T05:19:12.865Z,8.20
2023-03-18T05:25:16.965Z,8.00
2023-03-18T05:31:22.274Z,7.93
2023-03-18T05:37:26.185Z,12.48
2023-03-18T05:43:29.940Z,11.43
2023-03-18T05:49:34.710Z,9.45
2023-03-18T05:55:38.268Z,10.38
2023-03-18T06:01:42.355Z,11.05
2023-03-18T06:07:47.260Z,19.83
2023-03-18T06:13:50.809Z,13.15
2023-03-18T06:19:54.528Z,12.02
2023-03-18T06:25:59.317Z,13.50
2023-03-18T06:32:02.970Z,14.38
2023-03-18T06:38:06.389Z,14.20
2023-03-18T06:44:11.227Z,15.38
2023-03-18T06:50:15.432Z,15.45
2023-03-18T06:56:18.906Z,19.77
2023-03-18T07:02:25.159Z,18.08
2023-03-18T07:08:29.363Z,18.00
2023-03-18T07:14:32.881Z,26.38
2023-03-18T07:20:37.766Z,19.45
2023-03-18T07:26:41.483Z,18.38
2023-03-18T07:32:46.178Z,18.45
2023-03-18T07:38:51.125Z,19.67
2023-03-18T07:44:55.267Z,21.00
2023-03-18T07:50:59.550Z,20.02
2023-03-18T07:57:05.232Z,20.50
2023-03-18T08:03:09.222Z,19.98
2023-03-18T08:09:12.741Z,20.45
2023-03-18T08:15:18.561Z,21.33
2023-03-18T08:21:21.964Z,19.73
2023-03-18T08:27:25.382Z,19.88
2023-03-18T08:33:30.186Z,19.25
2023-03-18T08:39:33.754Z,18.73
2023-03-18T08:45:37.778Z,20.42
2023-03-18T08:51:43.173Z,17.08
2023-03-18T08:57:47.555Z,21.75
2023-03-18T09:03:51.860Z,17.40
2023-03-18T09:09:56.856Z,17.25
2023-03-18T09:16:00.451Z,18.65
2023-03-18T09:22:03.924Z,15.02
2023-03-18T09:28:08.972Z,14.27
2023-03-18T09:34:13.717Z,15.18
2023-03-18T09:40:20.838Z,12.95
2023-03-18T09:46:29.005Z,11.32
2023-03-18T09:52:33.644Z,11.20
2023-03-18T09:58:46.456Z,11.02
2023-03-18T10:04:52.500Z,9.15
2023-03-18T10:10:56.196Z,8.48
2023-03-18T10:17:04.832Z,8.10
2023-03-18T10:23:12.978Z,7.15
2023-03-18T10:29:30.966Z,7.30
2023-03-18T10:35:40.208Z,6.60
2023-03-18T10:41:45.817Z,5.43
2023-03-18T10:47:52.559Z,5.03
2023-03-18T10:53:59.867Z,3.60
2023-03-18T11:00:05.832Z,4.22
2023-03-18T11:06:13.528Z,3.97
2023-03-18T11:12:19.312Z,3.55
2023-03-18T11:18:26.402Z,3.50
2023-03-18T11:24:38.920Z,3.40
2023-03-18T11:30:46.932Z,3.15
2023-03-18T11:37:04.484Z,3.13
2023-03-18T11:43:17.893Z,3.60
2023-03-18T11:49:23.436Z,3.50
2023-03-18T11:55:34.712Z,2.88
2023-03-18T12:01:44.716Z,2.72
2023-03-18T12:07:53.601Z,2.22
2023-03-18T12:14:02.940Z,2.88
2023-03-18T12:20:33.872Z,2.55
2023-03-18T12:26:42.446Z,2.58
2023-03-18T12:32:50.832Z,2.30
2023-03-18T12:39:05.830Z,1.92
2023-03-18T12:45:11.033Z,2.30
2023-03-18T12:51:18.258Z,2.58
2023-03-18T12:57:23.850Z,2.25
2023-03-18T13:03:33.235Z,1.90
2023-03-18T13:09:40.766Z,2.00
2023-03-18T13:15:46.629Z,2.10
2023-03-18T13:21:51.929Z,2.08
2023-03-18T13:28:10.218Z,2.30
2023-03-18T13:34:35.529Z,2.20
2023-03-18T13:40:47.580Z,1.83
2023-03-18T13:46:56.246Z,1.33
2023-03-18T13:53:03.400Z,2.00
2023-03-18T13:59:06.873Z,1.70
2023-03-18T14:05:25.791Z,1.70
2023-03-18T14:11:46.937Z,1.70
2023-03-18T14:17:56.966Z,1.42
2023-03-18T14:24:08.006Z,1.80
2023-03-18T14:30:44.661Z,1.70
2023-03-18T14:37:06.380Z,1.75
2023-03-18T14:43:11.394Z,1.80
2023-03-18T14:49:31.835Z,1.50
2023-03-18T14:55:36.677Z,2.42
2023-03-18T15:01:41.848Z,2.00
2023-03-18T15:07:52.760Z,1.50
2023-03-18T15:14:00.028Z,1.30
2023-03-18T15:20:05.696Z,1.15
2023-03-18T15:26:17.326Z,1.23
2023-03-18T15:32:21.907Z,1.33
2023-03-18T15:38:28.482Z,1.45
2023-03-18T15:44:34.136Z,1.33
2023-03-18T15:50:38.335Z,1.80
2023-03-18T15:56:46.484Z,1.75
2023-03-18T16:02:51.607Z,1.75
2023-03-18T16:08:55.587Z,1.80
2023-03-18T16:14:59.051Z,1.48
2023-03-18T16:21:03.834Z,1.02
2023-03-18T16:27:08.445Z,1.20
2023-03-18T16:33:14.166Z,1.20
2023-03-18T16:39:20.022Z,1.15
2023-03-18T16:45:26.120Z,1.27
2023-03-18T16:51:30.005Z,1.40
2023-03-18T16:57:34.997Z,1.00
2023-03-18T17:03:38.586Z,1.73
2023-03-18T17:09:42.043Z,1.30
2023-03-18T17:15:46.944Z,2.30
2023-03-18T17:21:51.654Z,2.28
2023-03-18T17:27:56.469Z,2.10
2023-03-18T17:34:01.418Z,1.80
2023-03-18T17:40:05.866Z,1.98
2023-03-18T17:46:09.885Z,2.13
2023-03-18T17:52:17.766Z,2.17
2023-03-18T17:58:22.536Z,2.00
2023-03-18T18:04:27.461Z,3.17
2023-03-18T18:10:32.464Z,4.30
2023-03-18T18:16:36.202Z,2.67
2023-03-18T18:22:40.315Z,3.38
2023-03-18T18:28:46.238Z,3.47
2023-03-18T18:34:49.676Z,3.10
2023-03-18T18:40:53.766Z,3.08
2023-03-18T18:46:58.919Z,4.05
2023-03-18T18:53:03.119Z,3.20
2023-03-18T18:59:22.278Z,2.28
2023-03-18T19:05:27.213Z,3.00
2023-03-18T19:11:30.884Z,1.83
2023-03-18T19:17:35.105Z,1.67
2023-03-18T19:23:39.971Z,2.25
2023-03-18T19:29:43.627Z,2.92
2023-03-18T19:35:47.562Z,2.50
2023-03-18T19:41:52.647Z,2.80
2023-03-18T19:47:56.055Z,2.65
2023-03-18T19:53:59.650Z,2.35
2023-03-18T20:00:07.018Z,2.10
2023-03-18T20:06:10.453Z,2.55
2023-03-18T20:12:20.926Z,2.50
2023-03-18T20:18:26.039Z,3.03
2023-03-18T20:24:30.900Z,2.40
2023-03-18T20:30:35.810Z,2.67
2023-03-18T20:36:41.384Z,2.63
2023-03-18T20:42:44.785Z,2.75
2023-03-18T20:48:49.446Z,2.97
2023-03-18T20:54:54.530Z,3.20
2023-03-18T21:00:58.043Z,2.58
2023-03-18T21:07:02.026Z,3.05
2023-03-18T21:13:16.381Z,2.83
2023-03-18T21:19:19.782Z,2.47
2023-03-18T21:25:24.161Z,2.63
2023-03-18T21:31:31.168Z,2.90
2023-03-18T21:37:34.772Z,2.90
2023-03-18T21:43:40.311Z,2.97
2023-03-18T21:49:45.693Z,2.88
2023-03-18T21:55:49.681Z,2.90
2023-03-18T22:01:53.432Z,3.08
2023-03-18T22:07:58.388Z,3.30
2023-03-18T22:14:01.815Z,2.47
2023-03-18T22:20:05.278Z,3.53
2023-03-18T22:26:14.341Z,3.35
2023-03-18T22:32:25.021Z,2.30
2023-03-18T22:38:28.808Z,2.60
2023-03-18T22:44:33.606Z,2.78
2023-03-18T22:50:37.245Z,2.80
2023-03-18T22:56:42.228Z,2.50
2023-03-18T23:02:47.034Z,2.33
2023-03-18T23:08:50.563Z,2.78
2023-03-18T23:14:54.427Z,2.40
2023-03-18T23:20:59.223Z,2.95
2023-03-18T23:27:03.109Z,2.75
2023-03-18T23:33:07.004Z,2.90
2023-03-18T23:39:11.938Z,3.08
2023-03-18T23:45:15.841Z,3.70
2023-03-18T23:51:19.260Z,2.67
2023-03-18T23:57:24.045Z,3.08
